sensor_id;sensor_type;location;lat;lon;timestamp;P1;durP1;ratioP1;P2;durP2;ratioP2
14923;SDS011;7554;43.600;1.480;2022-08-19T00:00:22;5.97;;;4.03;;
14923;SDS011;7554;43.600;1.480;2022-08-19T00:02:50;7.77;;;4.07;;
14923;SDS011;7554;43.600;1.480;2022-08-19T00:05:19;5.77;;;4.03;;
14923;SDS011;7554;43.600;1.480;2022-08-19T00:07:48;7.33;;;4.40;;
14923;SDS011;7554;43.600;1.480;2022-08-19T00:10:17;5.73;;;4.07;;
14923;SDS011;7554;43.600;1.480;2022-08-19T00:12:46;6.93;;;4.47;;
14923;SDS011;7554;43.600;1.480;2022-08-19T00:15:14;6.60;;;4.10;;
14923;SDS011;7554;43.600;1.480;2022-08-19T00:17:44;7.93;;;4.30;;
14923;SDS011;7554;43.600;1.480;2022-08-19T00:20:12;8.67;;;4.20;;
14923;SDS011;7554;43.600;1.480;2022-08-19T00:22:43;7.00;;;4.60;;
14923;SDS011;7554;43.600;1.480;2022-08-19T00:25:11;8.27;;;4.33;;
14923;SDS011;7554;43.600;1.480;2022-08-19T00:27:40;6.97;;;4.30;;
14923;SDS011;7554;43.600;1.480;2022-08-19T00:30:08;8.03;;;4.80;;
14923;SDS011;7554;43.600;1.480;2022-08-19T00:32:36;5.80;;;3.97;;
14923;SDS011;7554;43.600;1.480;2022-08-19T00:35:04;7.27;;;4.50;;
14923;SDS011;7554;43.600;1.480;2022-08-19T00:37:32;4.83;;;3.87;;
14923;SDS011;7554;43.600;1.480;2022-08-19T00:40:00;7.20;;;4.87;;
14923;SDS011;7554;43.600;1.480;2022-08-19T00:42:29;6.93;;;4.53;;
14923;SDS011;7554;43.600;1.480;2022-08-19T00:44:58;7.00;;;4.33;;
14923;SDS011;7554;43.600;1.480;2022-08-19T00:47:25;7.60;;;4.73;;
14923;SDS011;7554;43.600;1.480;2022-08-19T00:49:53;6.40;;;4.20;;
14923;SDS011;7554;43.600;1.480;2022-08-19T00:52:25;6.93;;;4.50;;
14923;SDS011;7554;43.600;1.480;2022-08-19T00:54:55;10.40;;;4.80;;
14923;SDS011;7554;43.600;1.480;2022-08-19T00:57:25;7.40;;;4.47;;
14923;SDS011;7554;43.600;1.480;2022-08-19T00:59:56;7.77;;;4.87;;
14923;SDS011;7554;43.600;1.480;2022-08-19T01:02:27;8.07;;;4.67;;
14923;SDS011;7554;43.600;1.480;2022-08-19T01:04:56;9.67;;;4.70;;
14923;SDS011;7554;43.600;1.480;2022-08-19T01:07:25;7.33;;;4.60;;
14923;SDS011;7554;43.600;1.480;2022-08-19T01:09:52;7.47;;;4.50;;
14923;SDS011;7554;43.600;1.480;2022-08-19T01:12:20;8.27;;;5.20;;
14923;SDS011;7554;43.600;1.480;2022-08-19T01:14:48;7.07;;;4.30;;
14923;SDS011;7554;43.600;1.480;2022-08-19T01:17:19;11.47;;;4.93;;
14923;SDS011;7554;43.600;1.480;2022-08-19T01:19:47;5.93;;;3.93;;
14923;SDS011;7554;43.600;1.480;2022-08-19T01:22:16;6.90;;;4.83;;
14923;SDS011;7554;43.600;1.480;2022-08-19T01:24:50;7.10;;;4.67;;
14923;SDS011;7554;43.600;1.480;2022-08-19T01:27:18;7.47;;;4.57;;
14923;SDS011;7554;43.600;1.480;2022-08-19T01:29:46;8.37;;;4.67;;
14923;SDS011;7554;43.600;1.480;2022-08-19T01:32:15;9.97;;;5.00;;
14923;SDS011;7554;43.600;1.480;2022-08-19T01:34:44;8.27;;;4.77;;
14923;SDS011;7554;43.600;1.480;2022-08-19T01:37:13;10.03;;;4.43;;
14923;SDS011;7554;43.600;1.480;2022-08-19T01:39:41;8.20;;;4.83;;
14923;SDS011;7554;43.600;1.480;2022-08-19T01:42:10;8.33;;;4.33;;
14923;SDS011;7554;43.600;1.480;2022-08-19T01:44:38;8.87;;;5.00;;
14923;SDS011;7554;43.600;1.480;2022-08-19T01:47:06;9.03;;;4.70;;
14923;SDS011;7554;43.600;1.480;2022-08-19T01:49:34;7.07;;;4.70;;
14923;SDS011;7554;43.600;1.480;2022-08-19T01:52:02;9.40;;;5.23;;
14923;SDS011;7554;43.600;1.480;2022-08-19T01:54:32;8.33;;;5.03;;
14923;SDS011;7554;43.600;1.480;2022-08-19T01:57:01;7.57;;;4.80;;
14923;SDS011;7554;43.600;1.480;2022-08-19T01:59:33;7.27;;;4.67;;
14923;SDS011;7554;43.600;1.480;2022-08-19T02:02:01;9.73;;;5.33;;
14923;SDS011;7554;43.600;1.480;2022-08-19T02:04:32;10.43;;;5.43;;
14923;SDS011;7554;43.600;1.480;2022-08-19T02:07:00;9.47;;;4.90;;
14923;SDS011;7554;43.600;1.480;2022-08-19T02:09:28;6.57;;;4.87;;
14923;SDS011;7554;43.600;1.480;2022-08-19T02:11:56;8.43;;;4.83;;
14923;SDS011;7554;43.600;1.480;2022-08-19T02:14:24;8.40;;;4.90;;
14923;SDS011;7554;43.600;1.480;2022-08-19T02:16:53;9.43;;;5.10;;
14923;SDS011;7554;43.600;1.480;2022-08-19T02:19:20;9.47;;;5.23;;
14923;SDS011;7554;43.600;1.480;2022-08-19T02:21:47;11.30;;;5.20;;
14923;SDS011;7554;43.600;1.480;2022-08-19T02:24:15;9.57;;;5.00;;
14923;SDS011;7554;43.600;1.480;2022-08-19T02:26:42;10.27;;;5.17;;
14923;SDS011;7554;43.600;1.480;2022-08-19T02:29:09;7.73;;;5.13;;
14923;SDS011;7554;43.600;1.480;2022-08-19T02:31:37;10.30;;;4.70;;
14923;SDS011;7554;43.600;1.480;2022-08-19T02:34:06;7.83;;;4.80;;
14923;SDS011;7554;43.600;1.480;2022-08-19T02:36:53;15.10;;;5.07;;
14923;SDS011;7554;43.600;1.480;2022-08-19T02:39:21;11.37;;;4.63;;
14923;SDS011;7554;43.600;1.480;2022-08-19T02:41:47;11.97;;;5.23;;
14923;SDS011;7554;43.600;1.480;2022-08-19T02:44:15;8.00;;;4.67;;
14923;SDS011;7554;43.600;1.480;2022-08-19T02:46:44;10.47;;;4.93;;
14923;SDS011;7554;43.600;1.480;2022-08-19T02:49:14;10.47;;;4.57;;
14923;SDS011;7554;43.600;1.480;2022-08-19T02:51:43;7.90;;;4.70;;
14923;SDS011;7554;43.600;1.480;2022-08-19T02:54:12;10.50;;;4.67;;
14923;SDS011;7554;43.600;1.480;2022-08-19T02:56:40;10.20;;;4.97;;
14923;SDS011;7554;43.600;1.480;2022-08-19T02:59:08;11.93;;;5.03;;
14923;SDS011;7554;43.600;1.480;2022-08-19T03:01:37;8.63;;;4.97;;
14923;SDS011;7554;43.600;1.480;2022-08-19T03:04:06;7.93;;;5.23;;
14923;SDS011;7554;43.600;1.480;2022-08-19T03:06:37;10.40;;;5.00;;
14923;SDS011;7554;43.600;1.480;2022-08-19T03:09:06;9.20;;;5.30;;
14923;SDS011;7554;43.600;1.480;2022-08-19T03:11:34;9.47;;;5.07;;
14923;SDS011;7554;43.600;1.480;2022-08-19T03:14:01;9.37;;;4.97;;
14923;SDS011;7554;43.600;1.480;2022-08-19T03:16:32;9.60;;;4.97;;
14923;SDS011;7554;43.600;1.480;2022-08-19T03:19:02;7.17;;;4.70;;
14923;SDS011;7554;43.600;1.480;2022-08-19T03:21:30;8.07;;;4.87;;
14923;SDS011;7554;43.600;1.480;2022-08-19T03:24:01;12.40;;;5.27;;
14923;SDS011;7554;43.600;1.480;2022-08-19T03:26:30;9.07;;;4.57;;
14923;SDS011;7554;43.600;1.480;2022-08-19T03:29:00;11.53;;;5.10;;
14923;SDS011;7554;43.600;1.480;2022-08-19T03:31:28;9.80;;;4.80;;
14923;SDS011;7554;43.600;1.480;2022-08-19T03:33:56;9.80;;;5.10;;
14923;SDS011;7554;43.600;1.480;2022-08-19T03:36:24;10.80;;;4.77;;
14923;SDS011;7554;43.600;1.480;2022-08-19T03:38:53;9.03;;;4.83;;
14923;SDS011;7554;43.600;1.480;2022-08-19T03:41:25;9.77;;;4.67;;
14923;SDS011;7554;43.600;1.480;2022-08-19T03:43:54;13.97;;;5.43;;
14923;SDS011;7554;43.600;1.480;2022-08-19T03:46:22;11.20;;;5.03;;
14923;SDS011;7554;43.600;1.480;2022-08-19T03:48:52;8.27;;;4.60;;
14923;SDS011;7554;43.600;1.480;2022-08-19T03:51:21;10.37;;;4.93;;
14923;SDS011;7554;43.600;1.480;2022-08-19T03:53:51;8.07;;;4.63;;
14923;SDS011;7554;43.600;1.480;2022-08-19T03:56:18;16.57;;;5.17;;
14923;SDS011;7554;43.600;1.480;2022-08-19T03:58:48;11.00;;;4.93;;
14923;SDS011;7554;43.600;1.480;2022-08-19T04:01:16;8.90;;;4.77;;
14923;SDS011;7554;43.600;1.480;2022-08-19T04:03:45;7.70;;;4.80;;
14923;SDS011;7554;43.600;1.480;2022-08-19T04:06:14;10.00;;;4.73;;
14923;SDS011;7554;43.600;1.480;2022-08-19T04:08:44;9.37;;;4.37;;
14923;SDS011;7554;43.600;1.480;2022-08-19T04:11:13;12.87;;;5.27;;
14923;SDS011;7554;43.600;1.480;2022-08-19T04:13:42;6.13;;;4.30;;
14923;SDS011;7554;43.600;1.480;2022-08-19T04:16:11;12.40;;;5.33;;
14923;SDS011;7554;43.600;1.480;2022-08-19T04:18:40;10.97;;;5.20;;
14923;SDS011;7554;43.600;1.480;2022-08-19T04:21:07;12.07;;;5.37;;
14923;SDS011;7554;43.600;1.480;2022-08-19T04:23:41;10.40;;;6.07;;
14923;SDS011;7554;43.600;1.480;2022-08-19T04:26:12;11.00;;;5.43;;
14923;SDS011;7554;43.600;1.480;2022-08-19T04:28:41;12.43;;;5.27;;
14923;SDS011;7554;43.600;1.480;2022-08-19T04:31:13;10.03;;;4.80;;
14923;SDS011;7554;43.600;1.480;2022-08-19T04:33:42;10.47;;;4.70;;
14923;SDS011;7554;43.600;1.480;2022-08-19T04:36:15;7.37;;;4.30;;
14923;SDS011;7554;43.600;1.480;2022-08-19T04:38:45;9.63;;;5.20;;
14923;SDS011;7554;43.600;1.480;2022-08-19T04:41:13;8.70;;;4.57;;
14923;SDS011;7554;43.600;1.480;2022-08-19T04:43:58;11.33;;;4.80;;
14923;SDS011;7554;43.600;1.480;2022-08-19T04:46:27;10.50;;;4.47;;
14923;SDS011;7554;43.600;1.480;2022-08-19T04:48:57;10.33;;;4.37;;
14923;SDS011;7554;43.600;1.480;2022-08-19T04:51:25;10.23;;;4.97;;
14923;SDS011;7554;43.600;1.480;2022-08-19T04:53:52;9.43;;;4.30;;
14923;SDS011;7554;43.600;1.480;2022-08-19T04:56:20;9.20;;;4.53;;
14923;SDS011;7554;43.600;1.480;2022-08-19T04:58:48;5.87;;;3.90;;
14923;SDS011;7554;43.600;1.480;2022-08-19T05:01:17;10.20;;;4.37;;
14923;SDS011;7554;43.600;1.480;2022-08-19T05:03:49;12.10;;;4.30;;
14923;SDS011;7554;43.600;1.480;2022-08-19T05:06:17;10.10;;;4.03;;
14923;SDS011;7554;43.600;1.480;2022-08-19T05:08:46;11.10;;;4.53;;
14923;SDS011;7554;43.600;1.480;2022-08-19T05:11:15;7.57;;;3.87;;
14923;SDS011;7554;43.600;1.480;2022-08-19T05:13:45;9.67;;;4.10;;
14923;SDS011;7554;43.600;1.480;2022-08-19T05:16:13;8.97;;;4.73;;
14923;SDS011;7554;43.600;1.480;2022-08-19T05:18:43;9.50;;;4.93;;
14923;SDS011;7554;43.600;1.480;2022-08-19T05:21:30;7.50;;;3.90;;
14923;SDS011;7554;43.600;1.480;2022-08-19T05:24:15;8.20;;;3.77;;
14923;SDS011;7554;43.600;1.480;2022-08-19T05:26:44;13.87;;;5.90;;
14923;SDS011;7554;43.600;1.480;2022-08-19T05:29:13;10.03;;;3.97;;
14923;SDS011;7554;43.600;1.480;2022-08-19T05:31:42;10.13;;;4.17;;
14923;SDS011;7554;43.600;1.480;2022-08-19T05:34:09;8.37;;;4.00;;
14923;SDS011;7554;43.600;1.480;2022-08-19T05:36:39;11.70;;;4.80;;
14923;SDS011;7554;43.600;1.480;2022-08-19T05:39:09;7.23;;;4.40;;
14923;SDS011;7554;43.600;1.480;2022-08-19T05:41:41;9.13;;;4.40;;
14923;SDS011;7554;43.600;1.480;2022-08-19T05:44:08;8.80;;;3.97;;
14923;SDS011;7554;43.600;1.480;2022-08-19T05:46:37;11.33;;;4.40;;
14923;SDS011;7554;43.600;1.480;2022-08-19T05:49:05;8.23;;;4.47;;
14923;SDS011;7554;43.600;1.480;2022-08-19T05:51:34;9.37;;;4.43;;
14923;SDS011;7554;43.600;1.480;2022-08-19T05:54:05;10.13;;;4.43;;
14923;SDS011;7554;43.600;1.480;2022-08-19T05:56:33;9.83;;;4.37;;
14923;SDS011;7554;43.600;1.480;2022-08-19T05:59:03;9.20;;;4.30;;
14923;SDS011;7554;43.600;1.480;2022-08-19T06:01:36;9.83;;;3.83;;
14923;SDS011;7554;43.600;1.480;2022-08-19T06:04:05;9.07;;;4.20;;
14923;SDS011;7554;43.600;1.480;2022-08-19T06:06:33;8.97;;;3.83;;
14923;SDS011;7554;43.600;1.480;2022-08-19T06:09:00;14.20;;;4.20;;
14923;SDS011;7554;43.600;1.480;2022-08-19T06:11:34;8.53;;;4.37;;
14923;SDS011;7554;43.600;1.480;2022-08-19T06:14:03;9.40;;;4.10;;
14923;SDS011;7554;43.600;1.480;2022-08-19T06:16:33;9.07;;;4.27;;
14923;SDS011;7554;43.600;1.480;2022-08-19T06:19:02;10.00;;;4.10;;
14923;SDS011;7554;43.600;1.480;2022-08-19T06:21:31;71.90;;;15.83;;
14923;SDS011;7554;43.600;1.480;2022-08-19T06:24:02;9.70;;;4.57;;
14923;SDS011;7554;43.600;1.480;2022-08-19T06:26:33;7.83;;;4.10;;
14923;SDS011;7554;43.600;1.480;2022-08-19T06:29:01;11.13;;;3.80;;
14923;SDS011;7554;43.600;1.480;2022-08-19T06:31:31;9.33;;;4.37;;
14923;SDS011;7554;43.600;1.480;2022-08-19T06:34:00;9.03;;;3.70;;
14923;SDS011;7554;43.600;1.480;2022-08-19T06:36:30;9.63;;;4.70;;
14923;SDS011;7554;43.600;1.480;2022-08-19T06:38:59;5.63;;;3.67;;
14923;SDS011;7554;43.600;1.480;2022-08-19T06:41:27;9.77;;;4.37;;
14923;SDS011;7554;43.600;1.480;2022-08-19T06:43:57;7.33;;;3.90;;
14923;SDS011;7554;43.600;1.480;2022-08-19T06:46:24;10.30;;;3.73;;
14923;SDS011;7554;43.600;1.480;2022-08-19T06:48:52;12.93;;;4.13;;
14923;SDS011;7554;43.600;1.480;2022-08-19T06:51:20;6.50;;;3.80;;
14923;SDS011;7554;43.600;1.480;2022-08-19T06:53:49;8.37;;;3.70;;
14923;SDS011;7554;43.600;1.480;2022-08-19T06:56:19;14.33;;;4.07;;
14923;SDS011;7554;43.600;1.480;2022-08-19T06:58:50;6.67;;;3.50;;
14923;SDS011;7554;43.600;1.480;2022-08-19T07:01:19;8.00;;;3.80;;
14923;SDS011;7554;43.600;1.480;2022-08-19T07:03:47;11.47;;;3.90;;
14923;SDS011;7554;43.600;1.480;2022-08-19T07:06:16;8.00;;;3.50;;
14923;SDS011;7554;43.600;1.480;2022-08-19T07:08:45;6.73;;;3.23;;
14923;SDS011;7554;43.600;1.480;2022-08-19T07:11:14;10.07;;;3.37;;
14923;SDS011;7554;43.600;1.480;2022-08-19T07:13:44;6.97;;;2.87;;
14923;SDS011;7554;43.600;1.480;2022-08-19T07:16:14;6.33;;;2.57;;
14923;SDS011;7554;43.600;1.480;2022-08-19T07:18:46;7.70;;;3.10;;
14923;SDS011;7554;43.600;1.480;2022-08-19T07:21:15;8.67;;;3.07;;
14923;SDS011;7554;43.600;1.480;2022-08-19T07:23:43;11.27;;;3.27;;
14923;SDS011;7554;43.600;1.480;2022-08-19T07:26:13;7.07;;;3.20;;
14923;SDS011;7554;43.600;1.480;2022-08-19T07:28:42;9.27;;;3.03;;
14923;SDS011;7554;43.600;1.480;2022-08-19T07:31:10;9.00;;;2.97;;
14923;SDS011;7554;43.600;1.480;2022-08-19T07:33:38;9.77;;;3.17;;
14923;SDS011;7554;43.600;1.480;2022-08-19T07:36:10;5.57;;;3.00;;
14923;SDS011;7554;43.600;1.480;2022-08-19T07:38:40;7.93;;;2.73;;
14923;SDS011;7554;43.600;1.480;2022-08-19T07:41:09;7.00;;;2.83;;
14923;SDS011;7554;43.600;1.480;2022-08-19T07:43:37;11.73;;;4.27;;
14923;SDS011;7554;43.600;1.480;2022-08-19T07:46:05;7.27;;;3.03;;
14923;SDS011;7554;43.600;1.480;2022-08-19T07:48:34;5.57;;;2.67;;
14923;SDS011;7554;43.600;1.480;2022-08-19T07:51:02;6.97;;;3.20;;
14923;SDS011;7554;43.600;1.480;2022-08-19T07:53:35;5.73;;;2.47;;
14923;SDS011;7554;43.600;1.480;2022-08-19T07:56:03;8.83;;;2.97;;
14923;SDS011;7554;43.600;1.480;2022-08-19T07:58:32;7.73;;;3.20;;
14923;SDS011;7554;43.600;1.480;2022-08-19T08:01:03;4.40;;;2.90;;
14923;SDS011;7554;43.600;1.480;2022-08-19T08:03:32;8.07;;;3.53;;
14923;SDS011;7554;43.600;1.480;2022-08-19T08:06:17;8.40;;;2.83;;
14923;SDS011;7554;43.600;1.480;2022-08-19T08:09:04;19.10;;;3.60;;
14923;SDS011;7554;43.600;1.480;2022-08-19T08:11:42;15.27;;;4.93;;
14923;SDS011;7554;43.600;1.480;2022-08-19T08:14:14;4.67;;;3.13;;
14923;SDS011;7554;43.600;1.480;2022-08-19T08:16:43;8.47;;;3.30;;
14923;SDS011;7554;43.600;1.480;2022-08-19T08:19:10;9.23;;;3.30;;
14923;SDS011;7554;43.600;1.480;2022-08-19T08:21:40;9.03;;;3.73;;
14923;SDS011;7554;43.600;1.480;2022-08-19T08:24:09;5.67;;;3.00;;
14923;SDS011;7554;43.600;1.480;2022-08-19T08:26:37;6.60;;;3.17;;
14923;SDS011;7554;43.600;1.480;2022-08-19T08:29:05;7.70;;;3.00;;
14923;SDS011;7554;43.600;1.480;2022-08-19T08:31:36;8.97;;;3.17;;
14923;SDS011;7554;43.600;1.480;2022-08-19T08:34:04;12.07;;;3.00;;
14923;SDS011;7554;43.600;1.480;2022-08-19T08:36:32;10.20;;;3.90;;
14923;SDS011;7554;43.600;1.480;2022-08-19T08:39:05;7.40;;;3.00;;
14923;SDS011;7554;43.600;1.480;2022-08-19T08:41:37;5.50;;;2.90;;
14923;SDS011;7554;43.600;1.480;2022-08-19T08:44:13;6.57;;;3.03;;
14923;SDS011;7554;43.600;1.480;2022-08-19T08:46:45;8.27;;;3.10;;
14923;SDS011;7554;43.600;1.480;2022-08-19T08:49:18;7.07;;;3.00;;
14923;SDS011;7554;43.600;1.480;2022-08-19T08:51:54;6.93;;;2.97;;
14923;SDS011;7554;43.600;1.480;2022-08-19T08:54:28;5.87;;;2.70;;
14923;SDS011;7554;43.600;1.480;2022-08-19T08:57:01;5.40;;;2.77;;
14923;SDS011;7554;43.600;1.480;2022-08-19T08:59:33;5.03;;;2.80;;
14923;SDS011;7554;43.600;1.480;2022-08-19T09:02:03;9.50;;;2.63;;
14923;SDS011;7554;43.600;1.480;2022-08-19T09:04:31;5.23;;;3.17;;
14923;SDS011;7554;43.600;1.480;2022-08-19T09:07:03;6.37;;;2.90;;
14923;SDS011;7554;43.600;1.480;2022-08-19T09:09:43;5.70;;;2.73;;
14923;SDS011;7554;43.600;1.480;2022-08-19T09:12:17;7.37;;;2.97;;
14923;SDS011;7554;43.600;1.480;2022-08-19T09:14:52;7.10;;;2.93;;
14923;SDS011;7554;43.600;1.480;2022-08-19T09:17:22;5.87;;;3.00;;
14923;SDS011;7554;43.600;1.480;2022-08-19T09:19:56;5.97;;;2.57;;
14923;SDS011;7554;43.600;1.480;2022-08-19T09:22:29;6.37;;;2.80;;
14923;SDS011;7554;43.600;1.480;2022-08-19T09:24:56;6.50;;;3.40;;
14923;SDS011;7554;43.600;1.480;2022-08-19T09:27:26;7.93;;;3.10;;
14923;SDS011;7554;43.600;1.480;2022-08-19T09:29:54;7.17;;;3.20;;
14923;SDS011;7554;43.600;1.480;2022-08-19T09:32:22;6.77;;;2.77;;
14923;SDS011;7554;43.600;1.480;2022-08-19T09:34:51;7.17;;;3.00;;
14923;SDS011;7554;43.600;1.480;2022-08-19T09:37:19;6.47;;;2.63;;
14923;SDS011;7554;43.600;1.480;2022-08-19T09:39:47;8.27;;;3.33;;
14923;SDS011;7554;43.600;1.480;2022-08-19T09:42:15;6.77;;;3.00;;
14923;SDS011;7554;43.600;1.480;2022-08-19T09:44:44;5.20;;;2.93;;
14923;SDS011;7554;43.600;1.480;2022-08-19T09:47:12;8.53;;;2.90;;
14923;SDS011;7554;43.600;1.480;2022-08-19T09:49:40;6.03;;;3.10;;
14923;SDS011;7554;43.600;1.480;2022-08-19T09:52:08;5.83;;;2.90;;
14923;SDS011;7554;43.600;1.480;2022-08-19T09:54:36;6.50;;;3.27;;
14923;SDS011;7554;43.600;1.480;2022-08-19T09:57:04;7.13;;;3.10;;
14923;SDS011;7554;43.600;1.480;2022-08-19T09:59:31;5.83;;;3.30;;
14923;SDS011;7554;43.600;1.480;2022-08-19T10:02:01;5.77;;;3.03;;
14923;SDS011;7554;43.600;1.480;2022-08-19T10:04:28;9.10;;;3.20;;
14923;SDS011;7554;43.600;1.480;2022-08-19T10:07:10;5.17;;;3.10;;
14923;SDS011;7554;43.600;1.480;2022-08-19T10:09:37;4.60;;;2.70;;
14923;SDS011;7554;43.600;1.480;2022-08-19T10:12:06;5.40;;;3.20;;
14923;SDS011;7554;43.600;1.480;2022-08-19T10:14:34;5.80;;;2.73;;
14923;SDS011;7554;43.600;1.480;2022-08-19T10:17:04;15.33;;;3.00;;
14923;SDS011;7554;43.600;1.480;2022-08-19T10:19:31;5.80;;;2.60;;
14923;SDS011;7554;43.600;1.480;2022-08-19T10:22:02;5.30;;;2.77;;
14923;SDS011;7554;43.600;1.480;2022-08-19T10:24:30;5.93;;;2.73;;
14923;SDS011;7554;43.600;1.480;2022-08-19T10:27:00;5.33;;;2.70;;
14923;SDS011;7554;43.600;1.480;2022-08-19T10:29:29;6.93;;;2.80;;
14923;SDS011;7554;43.600;1.480;2022-08-19T10:32:00;4.87;;;2.40;;
14923;SDS011;7554;43.600;1.480;2022-08-19T10:34:30;7.80;;;2.80;;
14923;SDS011;7554;43.600;1.480;2022-08-19T10:36:58;6.53;;;2.83;;
14923;SDS011;7554;43.600;1.480;2022-08-19T10:39:26;5.80;;;2.80;;
14923;SDS011;7554;43.600;1.480;2022-08-19T10:41:55;6.13;;;2.70;;
14923;SDS011;7554;43.600;1.480;2022-08-19T10:44:22;7.53;;;3.27;;
14923;SDS011;7554;43.600;1.480;2022-08-19T10:46:50;6.80;;;3.00;;
14923;SDS011;7554;43.600;1.480;2022-08-19T10:49:18;4.87;;;2.83;;
14923;SDS011;7554;43.600;1.480;2022-08-19T10:51:47;4.37;;;2.53;;
14923;SDS011;7554;43.600;1.480;2022-08-19T10:54:32;7.53;;;2.83;;
14923;SDS011;7554;43.600;1.480;2022-08-19T10:57:17;5.40;;;2.83;;
14923;SDS011;7554;43.600;1.480;2022-08-19T10:59:45;7.47;;;3.57;;
14923;SDS011;7554;43.600;1.480;2022-08-19T11:02:13;5.53;;;3.10;;
14923;SDS011;7554;43.600;1.480;2022-08-19T11:04:40;6.27;;;2.87;;
14923;SDS011;7554;43.600;1.480;2022-08-19T11:07:09;6.70;;;3.30;;
14923;SDS011;7554;43.600;1.480;2022-08-19T11:09:38;6.50;;;3.40;;
14923;SDS011;7554;43.600;1.480;2022-08-19T11:12:07;7.07;;;3.47;;
14923;SDS011;7554;43.600;1.480;2022-08-19T11:14:37;8.30;;;3.33;;
14923;SDS011;7554;43.600;1.480;2022-08-19T11:17:05;6.37;;;3.00;;
14923;SDS011;7554;43.600;1.480;2022-08-19T11:19:33;6.77;;;2.90;;
14923;SDS011;7554;43.600;1.480;2022-08-19T11:22:01;7.23;;;2.80;;
14923;SDS011;7554;43.600;1.480;2022-08-19T11:24:30;4.70;;;3.07;;
14923;SDS011;7554;43.600;1.480;2022-08-19T11:27:02;5.07;;;2.87;;
14923;SDS011;7554;43.600;1.480;2022-08-19T11:29:32;5.90;;;3.03;;
14923;SDS011;7554;43.600;1.480;2022-08-19T11:32:02;8.37;;;3.60;;
14923;SDS011;7554;43.600;1.480;2022-08-19T11:34:31;4.20;;;2.67;;
14923;SDS011;7554;43.600;1.480;2022-08-19T11:37:00;6.03;;;2.73;;
14923;SDS011;7554;43.600;1.480;2022-08-19T11:39:30;5.27;;;2.90;;
14923;SDS011;7554;43.600;1.480;2022-08-19T11:41:59;5.77;;;2.60;;
14923;SDS011;7554;43.600;1.480;2022-08-19T11:44:27;7.47;;;2.77;;
14923;SDS011;7554;43.600;1.480;2022-08-19T11:46:55;4.40;;;2.83;;
14923;SDS011;7554;43.600;1.480;2022-08-19T11:49:23;4.33;;;2.43;;
14923;SDS011;7554;43.600;1.480;2022-08-19T11:51:51;4.30;;;3.13;;
14923;SDS011;7554;43.600;1.480;2022-08-19T11:54:19;4.83;;;2.80;;
14923;SDS011;7554;43.600;1.480;2022-08-19T11:56:48;6.00;;;2.83;;
14923;SDS011;7554;43.600;1.480;2022-08-19T11:59:16;4.73;;;2.53;;
14923;SDS011;7554;43.600;1.480;2022-08-19T12:01:43;6.67;;;2.77;;
14923;SDS011;7554;43.600;1.480;2022-08-19T12:04:11;3.97;;;2.43;;
14923;SDS011;7554;43.600;1.480;2022-08-19T12:06:39;8.53;;;3.00;;
14923;SDS011;7554;43.600;1.480;2022-08-19T12:09:08;8.37;;;2.77;;
14923;SDS011;7554;43.600;1.480;2022-08-19T12:11:37;5.07;;;2.80;;
14923;SDS011;7554;43.600;1.480;2022-08-19T12:14:08;4.63;;;2.53;;
14923;SDS011;7554;43.600;1.480;2022-08-19T12:16:39;4.50;;;2.50;;
14923;SDS011;7554;43.600;1.480;2022-08-19T12:19:07;6.13;;;2.83;;
14923;SDS011;7554;43.600;1.480;2022-08-19T12:21:35;5.27;;;2.93;;
14923;SDS011;7554;43.600;1.480;2022-08-19T12:24:04;5.67;;;2.80;;
14923;SDS011;7554;43.600;1.480;2022-08-19T12:26:32;3.07;;;2.67;;
14923;SDS011;7554;43.600;1.480;2022-08-19T12:29:00;6.33;;;2.80;;
14923;SDS011;7554;43.600;1.480;2022-08-19T12:31:29;5.67;;;3.00;;
14923;SDS011;7554;43.600;1.480;2022-08-19T12:33:57;7.10;;;3.60;;
14923;SDS011;7554;43.600;1.480;2022-08-19T12:36:27;5.30;;;3.17;;
14923;SDS011;7554;43.600;1.480;2022-08-19T12:38:55;4.27;;;2.43;;
14923;SDS011;7554;43.600;1.480;2022-08-19T12:41:25;6.50;;;3.03;;
14923;SDS011;7554;43.600;1.480;2022-08-19T12:43:53;8.23;;;2.67;;
14923;SDS011;7554;43.600;1.480;2022-08-19T12:46:20;5.63;;;2.90;;
14923;SDS011;7554;43.600;1.480;2022-08-19T12:48:49;4.37;;;2.73;;
14923;SDS011;7554;43.600;1.480;2022-08-19T12:51:17;4.67;;;2.70;;
14923;SDS011;7554;43.600;1.480;2022-08-19T12:53:45;3.70;;;2.27;;
14923;SDS011;7554;43.600;1.480;2022-08-19T12:56:14;3.83;;;2.43;;
14923;SDS011;7554;43.600;1.480;2022-08-19T12:58:42;4.47;;;2.63;;
14923;SDS011;7554;43.600;1.480;2022-08-19T13:01:12;5.60;;;2.50;;
14923;SDS011;7554;43.600;1.480;2022-08-19T13:03:41;2.63;;;2.20;;
14923;SDS011;7554;43.600;1.480;2022-08-19T13:06:10;4.50;;;2.20;;
14923;SDS011;7554;43.600;1.480;2022-08-19T13:08:38;7.00;;;2.47;;
14923;SDS011;7554;43.600;1.480;2022-08-19T13:11:10;4.50;;;2.70;;
14923;SDS011;7554;43.600;1.480;2022-08-19T13:13:38;3.90;;;2.40;;
14923;SDS011;7554;43.600;1.480;2022-08-19T13:16:07;5.93;;;2.63;;
14923;SDS011;7554;43.600;1.480;2022-08-19T13:18:36;4.20;;;2.20;;
14923;SDS011;7554;43.600;1.480;2022-08-19T13:21:04;5.77;;;2.57;;
14923;SDS011;7554;43.600;1.480;2022-08-19T13:23:34;5.80;;;2.77;;
14923;SDS011;7554;43.600;1.480;2022-08-19T13:26:03;5.73;;;2.50;;
14923;SDS011;7554;43.600;1.480;2022-08-19T13:28:32;5.33;;;2.20;;
14923;SDS011;7554;43.600;1.480;2022-08-19T13:31:14;3.00;;;2.60;;
14923;SDS011;7554;43.600;1.480;2022-08-19T13:34:00;4.03;;;2.33;;
14923;SDS011;7554;43.600;1.480;2022-08-19T13:36:28;5.43;;;2.67;;
14923;SDS011;7554;43.600;1.480;2022-08-19T13:38:57;3.85;;;2.33;;
14923;SDS011;7554;43.600;1.480;2022-08-19T13:41:25;6.07;;;2.80;;
14923;SDS011;7554;43.600;1.480;2022-08-19T13:43:53;4.60;;;2.20;;
14923;SDS011;7554;43.600;1.480;2022-08-19T13:46:20;3.43;;;2.20;;
14923;SDS011;7554;43.600;1.480;2022-08-19T13:48:48;4.70;;;2.30;;
14923;SDS011;7554;43.600;1.480;2022-08-19T13:51:15;4.97;;;2.47;;
14923;SDS011;7554;43.600;1.480;2022-08-19T13:53:43;3.23;;;2.33;;
14923;SDS011;7554;43.600;1.480;2022-08-19T13:56:13;4.53;;;2.43;;
14923;SDS011;7554;43.600;1.480;2022-08-19T13:58:42;4.27;;;2.40;;
14923;SDS011;7554;43.600;1.480;2022-08-19T14:01:10;5.13;;;2.37;;
14923;SDS011;7554;43.600;1.480;2022-08-19T14:03:38;4.03;;;2.40;;
14923;SDS011;7554;43.600;1.480;2022-08-19T14:06:05;5.90;;;2.90;;
14923;SDS011;7554;43.600;1.480;2022-08-19T14:08:33;6.20;;;2.57;;
14923;SDS011;7554;43.600;1.480;2022-08-19T14:11:04;5.57;;;2.60;;
14923;SDS011;7554;43.600;1.480;2022-08-19T14:13:33;5.40;;;2.50;;
14923;SDS011;7554;43.600;1.480;2022-08-19T14:16:01;4.10;;;1.97;;
14923;SDS011;7554;43.600;1.480;2022-08-19T14:18:33;6.57;;;2.50;;
14923;SDS011;7554;43.600;1.480;2022-08-19T14:21:01;4.20;;;2.37;;
14923;SDS011;7554;43.600;1.480;2022-08-19T14:23:29;4.00;;;2.20;;
14923;SDS011;7554;43.600;1.480;2022-08-19T14:26:03;5.73;;;2.40;;
14923;SDS011;7554;43.600;1.480;2022-08-19T14:28:31;6.23;;;2.90;;
14923;SDS011;7554;43.600;1.480;2022-08-19T14:31:00;3.80;;;2.07;;
14923;SDS011;7554;43.600;1.480;2022-08-19T14:33:27;3.00;;;2.07;;
14923;SDS011;7554;43.600;1.480;2022-08-19T14:35:55;5.30;;;2.43;;
14923;SDS011;7554;43.600;1.480;2022-08-19T14:38:22;3.67;;;2.10;;
14923;SDS011;7554;43.600;1.480;2022-08-19T14:40:49;3.40;;;2.03;;
14923;SDS011;7554;43.600;1.480;2022-08-19T14:43:18;4.37;;;2.70;;
14923;SDS011;7554;43.600;1.480;2022-08-19T14:45:45;4.03;;;2.10;;
14923;SDS011;7554;43.600;1.480;2022-08-19T14:48:14;6.77;;;2.10;;
14923;SDS011;7554;43.600;1.480;2022-08-19T14:50:41;3.17;;;2.23;;
14923;SDS011;7554;43.600;1.480;2022-08-19T14:53:09;3.67;;;2.20;;
14923;SDS011;7554;43.600;1.480;2022-08-19T14:55:40;3.23;;;2.10;;
14923;SDS011;7554;43.600;1.480;2022-08-19T14:58:08;3.83;;;2.20;;
14923;SDS011;7554;43.600;1.480;2022-08-19T15:00:36;3.77;;;2.57;;
14923;SDS011;7554;43.600;1.480;2022-08-19T15:03:05;5.37;;;2.50;;
14923;SDS011;7554;43.600;1.480;2022-08-19T15:05:33;4.03;;;2.37;;
14923;SDS011;7554;43.600;1.480;2022-08-19T15:08:02;3.93;;;2.20;;
14923;SDS011;7554;43.600;1.480;2022-08-19T15:10:30;4.47;;;2.30;;